This is the latest recevied weather packets stored in our database for station/object W1MWS-13. If no packets are shown the sender has not sent any weather packets the latest 10 day(s).
| Time | Temp. | Humidity | Pressure | Rain* | Wind** | Luminosity | Snow |
|---|---|---|---|---|---|---|---|
| 1777786702 | 7.22° C | 99% | 1010 hPa | 0 mm | - | - | - |
| 1777786102 | 7.22° C | 99% | 1010.2 hPa | 0 mm | - | - | - |
| 1777785212 | 7.22° C | 99% | 1010.2 hPa | 0 mm | - | - | - |
| 1777784606 | 7.22° C | 99% | 1010.4 hPa | 0 mm | - | - | - |
| 1777784316 | 7.22° C | 99% | 1010.4 hPa | 0 mm | - | - | - |
| 1777780102 | 7.78° C | 99% | 1010.9 hPa | 0 mm | - | - | - |
| 1777778916 | 7.78° C | 99% | 1011 hPa | 0 mm | - | - | - |
| 1777778005 | 7.78° C | 99% | 1010.9 hPa | 0 mm | - | - | - |
| 1777777399 | 8.33° C | 99% | 1010.9 hPa | 0 mm | - | - | - |
| 1777776512 | 8.33° C | 99% | 1010.9 hPa | 0 mm | - | - | - |
| 1777773801 | 8.89° C | 99% | 1011.2 hPa | 0 mm | - | - | - |
| 1777772601 | 9.44° C | 96% | 1011.2 hPa | 0 mm | - | - | - |
| 1777772002 | 9.44° C | 95% | 1011 hPa | 0 mm | - | - | - |
| 1777771412 | 10° C | 95% | 1011 hPa | 0 mm | - | - | - |
| 1777768417 | 10° C | 98% | 1011 hPa | 0 mm | - | - | - |
| 1777767196 | 10.56° C | 99% | 1010.9 hPa | 0 mm | - | - | - |
| 1777766616 | 10.56° C | 99% | 1010.8 hPa | 0 mm | - | - | - |
| 1777766008 | 10.56° C | 99% | 1010.7 hPa | 0 mm | - | - | - |
| 1777762709 | 11.11° C | 94% | 1010.3 hPa | 0 mm | - | - | - |
| 1777761799 | 10.56° C | 95% | 1009.9 hPa | 0 mm | - | - | - |
| 1777759707 | 10.56° C | 98% | 1010.2 hPa | 0 mm | - | - | - |
| 1777759096 | 10.56° C | 97% | 1010.2 hPa | 0 mm | - | - | - |
| 1777757906 | 10.56° C | 97% | 1010.4 hPa | 0 mm | - | - | - |
| 1777757307 | 10.56° C | 94% | 1010.4 hPa | 0 mm | - | - | - |
| 1777755805 | 11.67° C | 87% | 1010.3 hPa | 0 mm | - | - | - |
* Rain latest hour (hover to see other rain measurements)
** Current wind speed in m/s (hover to see current wind gust speed)